Aviation Digital Data Service (ADDS)

Output produced by METARs form (2139 UTC 17 April 2014)
found at http://aviationweather.gov/adds/metars/
 
KHLG 171724Z 1718/1818 16009KT P6SM BKN250 
     FM181500 21009KT P6SM SCT100